createdAt,value
2022-11-24T00:01:33.550Z,8.77
2022-11-24T00:04:36.472Z,9.18
2022-11-24T00:07:39.242Z,9.95
2022-11-24T00:10:42.532Z,9.73
2022-11-24T00:13:46.390Z,9.40
2022-11-24T00:16:50.645Z,9.88
2022-11-24T00:19:54.330Z,10.45
2022-11-24T00:22:57.236Z,9.52
2022-11-24T00:26:14.438Z,9.90
2022-11-24T00:29:18.628Z,10.23
2022-11-24T00:32:21.387Z,10.23
2022-11-24T00:35:24.440Z,10.15
2022-11-24T00:38:27.572Z,10.10
2022-11-24T00:41:31.556Z,9.98
2022-11-24T00:44:35.762Z,10.30
2022-11-24T00:47:39.616Z,10.55
2022-11-24T00:50:42.631Z,10.45
2022-11-24T00:53:46.375Z,10.32
2022-11-24T00:56:49.363Z,11.00
2022-11-24T00:59:52.435Z,9.53
2022-11-24T01:02:55.423Z,9.63
2022-11-24T01:06:06.300Z,9.80
2022-11-24T01:09:11.480Z,9.48
2022-11-24T01:12:14.539Z,9.45
2022-11-24T01:15:17.253Z,9.60
2022-11-24T01:18:23.213Z,10.18
2022-11-24T01:21:26.191Z,9.98
2022-11-24T01:24:29.676Z,9.50
2022-11-24T01:27:32.351Z,8.57
2022-11-24T01:30:35.191Z,8.87
2022-11-24T01:33:38.708Z,9.43
2022-11-24T01:36:41.695Z,10.00
2022-11-24T01:39:44.412Z,8.93
2022-11-24T01:42:50.432Z,10.52
2022-11-24T01:45:54.423Z,11.60
2022-11-24T01:49:18.068Z,11.85
2022-11-24T01:52:30.457Z,13.90
2022-11-24T01:55:37.805Z,13.07
2022-11-24T01:58:43.027Z,14.10
2022-11-24T02:01:48.959Z,14.17
2022-11-24T02:04:52.398Z,13.88
2022-11-24T02:07:59.216Z,14.73
2022-11-24T02:11:04.958Z,14.27
2022-11-24T02:14:15.764Z,14.73
2022-11-24T02:17:18.769Z,13.70
2022-11-24T02:20:22.575Z,14.73
2022-11-24T02:23:36.989Z,15.60
2022-11-24T02:26:46.051Z,15.07
2022-11-24T02:29:49.472Z,16.42
2022-11-24T02:32:54.396Z,15.27
2022-11-24T02:35:58.622Z,15.95
2022-11-24T02:39:01.680Z,16.25
2022-11-24T02:42:12.339Z,15.88
2022-11-24T02:45:16.828Z,15.55
2022-11-24T02:48:19.462Z,15.50
2022-11-24T02:51:23.380Z,14.98
2022-11-24T02:54:27.028Z,16.10
2022-11-24T02:57:29.913Z,16.42
2022-11-24T03:00:32.922Z,17.17
2022-11-24T03:03:36.310Z,16.90
2022-11-24T03:06:39.297Z,18.05
2022-11-24T03:09:42.668Z,17.15
2022-11-24T03:12:45.707Z,18.23
2022-11-24T03:15:49.449Z,18.50
2022-11-24T03:18:53.983Z,17.17
2022-11-24T03:21:57.094Z,17.33
2022-11-24T03:25:00.427Z,18.08
2022-11-24T03:28:04.077Z,18.17
2022-11-24T03:31:08.320Z,17.98
2022-11-24T03:34:12.191Z,16.60
2022-11-24T03:37:15.051Z,16.90
2022-11-24T03:40:18.385Z,18.35
2022-11-24T03:43:21.507Z,17.48
2022-11-24T03:46:24.235Z,18.10
2022-11-24T03:49:27.145Z,18.10
2022-11-24T03:52:32.772Z,17.42
2022-11-24T03:55:35.891Z,19.23
2022-11-24T03:58:39.073Z,17.98
2022-11-24T04:01:43.235Z,18.87
2022-11-24T04:04:50.649Z,17.80
2022-11-24T04:07:57.744Z,17.92
2022-11-24T04:11:01.424Z,19.83
2022-11-24T04:14:13.331Z,17.90
2022-11-24T04:17:29.583Z,17.87
2022-11-24T04:20:32.497Z,19.37
2022-11-24T04:23:35.278Z,17.90
2022-11-24T04:26:39.233Z,17.50
2022-11-24T04:29:42.964Z,18.27
2022-11-24T04:32:46.217Z,17.92
2022-11-24T04:35:53.525Z,18.03
2022-11-24T04:39:25.614Z,17.70
2022-11-24T04:42:21.505Z,19.95
2022-11-24T04:45:28.276Z,18.83
2022-11-24T04:48:32.803Z,19.45
2022-11-24T04:51:45.353Z,18.20
2022-11-24T04:54:49.361Z,20.12
2022-11-24T04:57:52.094Z,19.37
2022-11-24T05:00:55.030Z,18.65
2022-11-24T05:03:58.726Z,21.12
2022-11-24T05:07:02.059Z,19.77
2022-11-24T05:10:25.019Z,18.75
2022-11-24T05:13:35.967Z,19.80
2022-11-24T05:16:38.935Z,18.65
2022-11-24T05:19:43.156Z,18.83
2022-11-24T05:22:51.573Z,19.93
2022-11-24T05:25:55.494Z,18.50
2022-11-24T05:29:00.357Z,19.27
2022-11-24T05:32:03.703Z,18.87
2022-11-24T05:35:09.894Z,19.60
2022-11-24T05:38:14.297Z,20.33
2022-11-24T05:41:17.168Z,19.40
2022-11-24T05:44:21.113Z,19.87
2022-11-24T05:47:34.389Z,19.02
2022-11-24T05:50:41.219Z,19.33
2022-11-24T05:53:52.410Z,18.57
2022-11-24T05:57:01.635Z,18.55
2022-11-24T06:00:14.208Z,19.30
2022-11-24T06:03:21.117Z,18.62
2022-11-24T06:06:24.410Z,16.75
2022-11-24T06:09:28.514Z,16.63
2022-11-24T06:12:33.251Z,19.42
2022-11-24T06:15:42.817Z,15.63
2022-11-24T06:18:48.636Z,17.62
2022-11-24T06:21:52.042Z,17.00
2022-11-24T06:24:54.724Z,16.43
2022-11-24T06:27:58.223Z,15.77
2022-11-24T06:31:05.490Z,16.40
2022-11-24T06:34:11.691Z,15.88
2022-11-24T06:37:18.991Z,17.15
2022-11-24T06:40:26.253Z,16.10
2022-11-24T06:43:30.725Z,16.27
2022-11-24T06:46:34.633Z,16.77
2022-11-24T06:49:37.729Z,16.02
2022-11-24T06:52:41.062Z,16.98
2022-11-24T06:55:45.376Z,15.63
2022-11-24T06:58:53.599Z,16.60
2022-11-24T07:01:58.590Z,16.75
2022-11-24T07:05:08.379Z,16.45
2022-11-24T07:08:17.602Z,16.70
2022-11-24T07:11:23.639Z,15.97
2022-11-24T07:14:28.236Z,16.33
2022-11-24T07:17:43.240Z,15.35
2022-11-24T07:20:48.343Z,16.55
2022-11-24T07:23:58.230Z,16.48
2022-11-24T07:27:01.300Z,15.27
2022-11-24T07:30:07.750Z,16.73
2022-11-24T07:33:12.195Z,15.93
2022-11-24T07:36:17.490Z,15.65
2022-11-24T07:39:21.257Z,16.95
2022-11-24T07:42:24.499Z,13.63
2022-11-24T07:45:29.646Z,15.68
2022-11-24T07:48:34.789Z,14.93
2022-11-24T07:51:44.349Z,15.15
2022-11-24T07:54:47.657Z,15.48
2022-11-24T07:57:55.635Z,13.77
2022-11-24T08:01:01.449Z,13.55
2022-11-24T08:04:07.164Z,14.55
2022-11-24T08:07:15.537Z,15.50
2022-11-24T08:10:19.919Z,15.00
2022-11-24T08:13:26.418Z,13.27
2022-11-24T08:16:29.589Z,14.15
2022-11-24T08:19:34.522Z,14.85
2022-11-24T08:22:39.270Z,14.55
2022-11-24T08:25:43.911Z,14.35
2022-11-24T08:28:48.173Z,13.93
2022-11-24T08:31:52.717Z,15.55
2022-11-24T08:35:08.570Z,14.52
2022-11-24T08:38:19.833Z,16.42
2022-11-24T08:41:25.205Z,16.00
2022-11-24T08:44:30.424Z,15.37
2022-11-24T08:47:34.609Z,16.33
2022-11-24T08:50:37.664Z,16.73
2022-11-24T08:53:42.237Z,15.95
2022-11-24T08:56:49.986Z,17.50
2022-11-24T08:59:53.532Z,15.77
2022-11-24T09:03:03.778Z,15.77
2022-11-24T09:06:09.098Z,16.00
2022-11-24T09:09:12.478Z,16.50
2022-11-24T09:12:17.583Z,14.87
2022-11-24T09:15:20.913Z,15.57
2022-11-24T09:18:29.915Z,14.20
2022-11-24T09:21:39.929Z,14.32
2022-11-24T09:24:43.451Z,14.38
2022-11-24T09:27:47.261Z,13.40
2022-11-24T09:30:53.425Z,14.07
2022-11-24T09:34:00.606Z,14.68
2022-11-24T09:37:04.542Z,14.60
2022-11-24T10:01:18.908Z,16.35
2022-11-24T10:04:28.452Z,15.07
2022-11-24T10:08:04.899Z,15.43
2022-11-24T10:11:15.008Z,15.30
2022-11-24T10:14:39.117Z,14.50
2022-11-24T10:18:04.186Z,14.18
2022-11-24T10:21:31.924Z,13.80
2022-11-24T10:24:56.701Z,13.75
2022-11-24T10:28:06.869Z,13.90
2022-11-24T10:31:24.743Z,14.55
2022-11-24T10:34:38.807Z,14.85
2022-11-24T10:38:08.146Z,14.13
2022-11-24T10:41:21.007Z,15.32
2022-11-24T10:44:24.818Z,14.63
2022-11-24T10:47:31.910Z,13.88
2022-11-24T10:50:41.955Z,14.93
2022-11-24T10:53:46.244Z,13.07
2022-11-24T10:56:53.612Z,13.07
2022-11-24T11:00:02.095Z,13.25
2022-11-24T11:03:18.922Z,13.32
2022-11-24T11:06:25.276Z,13.43
2022-11-24T11:09:40.834Z,12.87
2022-11-24T11:12:45.057Z,12.55
2022-11-24T11:15:52.203Z,12.05
2022-11-24T11:18:56.734Z,11.93
2022-11-24T11:22:03.946Z,13.25
2022-11-24T11:25:10.076Z,12.70
2022-11-24T11:28:29.039Z,12.15
2022-11-24T11:31:35.471Z,10.65
2022-11-24T11:34:42.417Z,10.27
2022-11-24T11:37:47.897Z,10.95
2022-11-24T11:40:54.304Z,10.53
2022-11-24T11:44:22.673Z,10.95
2022-11-24T11:48:01.588Z,11.12
2022-11-24T11:51:26.131Z,10.77
2022-11-24T11:54:46.124Z,10.88
2022-11-24T11:58:12.954Z,10.33
2022-11-24T12:01:35.762Z,10.00
2022-11-24T12:04:47.827Z,10.52
2022-11-24T12:08:21.515Z,9.40
2022-11-24T12:11:44.898Z,9.77
2022-11-24T12:14:59.355Z,9.50
2022-11-24T12:18:57.161Z,9.02
2022-11-24T12:22:15.897Z,9.95
2022-11-24T12:25:32.858Z,9.32
2022-11-24T12:29:14.250Z,9.05
2022-11-24T12:32:58.600Z,8.37
2022-11-24T12:36:21.928Z,8.73
2022-11-24T12:39:41.824Z,8.80
2022-11-24T12:43:20.953Z,8.25
2022-11-24T12:46:27.986Z,8.45
2022-11-24T12:50:11.737Z,8.37
2022-11-24T12:53:22.932Z,7.70
2022-11-24T12:56:38.843Z,7.30
2022-11-24T13:00:01.852Z,7.65
2022-11-24T13:03:26.946Z,9.40
2022-11-24T13:06:55.787Z,7.83
2022-11-24T13:14:27.853Z,7.37
2022-11-24T13:17:52.461Z,7.85
2022-11-24T13:20:58.691Z,7.72
2022-11-24T13:24:05.023Z,6.67
2022-11-24T13:27:26.792Z,7.07
2022-11-24T13:30:34.719Z,7.47
2022-11-24T13:33:40.034Z,7.65
2022-11-24T13:36:53.715Z,8.98
2022-11-24T13:40:03.242Z,8.20
2022-11-24T13:43:07.761Z,6.95
2022-11-24T13:46:14.331Z,6.78
2022-11-24T13:49:20.820Z,7.93
2022-11-24T13:52:38.750Z,7.32
2022-11-24T13:55:56.591Z,6.83
2022-11-24T13:59:19.450Z,7.50
2022-11-24T14:02:26.884Z,7.57
2022-11-24T14:05:39.140Z,7.57
2022-11-24T14:08:48.961Z,6.75
2022-11-24T14:12:17.892Z,7.33
2022-11-24T14:15:29.810Z,7.30
2022-11-24T14:18:36.311Z,6.82
2022-11-24T14:21:46.883Z,7.18
2022-11-24T14:24:56.746Z,8.45
2022-11-24T14:28:25.821Z,7.87
2022-11-24T14:31:30.708Z,7.97
2022-11-24T14:34:38.328Z,8.40
2022-11-24T14:37:46.752Z,9.05
2022-11-24T14:40:55.144Z,8.80
2022-11-24T14:44:15.026Z,8.57
2022-11-24T14:47:46.930Z,8.07
2022-11-24T14:50:50.922Z,8.93
2022-11-24T14:54:20.931Z,8.43
2022-11-24T14:57:37.961Z,8.70
2022-11-24T15:00:44.931Z,8.80
2022-11-24T15:04:39.355Z,8.38
2022-11-24T15:07:48.815Z,8.93
2022-11-24T15:11:03.330Z,9.35
2022-11-24T15:14:34.299Z,11.02
2022-11-24T15:17:48.736Z,10.30
2022-11-24T15:20:58.926Z,13.00
2022-11-24T15:24:18.962Z,10.93
2022-11-24T15:27:28.633Z,10.20
2022-11-24T15:30:36.156Z,22.25
2022-11-24T15:33:42.540Z,24.57
2022-11-24T15:36:46.971Z,21.95
2022-11-24T15:39:57.796Z,20.55
2022-11-24T15:43:42.286Z,25.12
2022-11-24T15:46:54.804Z,24.52
2022-11-24T15:50:06.701Z,16.17
2022-11-24T15:53:21.782Z,13.18
2022-11-24T15:56:33.205Z,13.82
2022-11-24T15:59:38.820Z,13.40
2022-11-24T16:02:42.310Z,12.65
2022-11-24T16:05:58.757Z,10.00
2022-11-24T16:09:03.886Z,9.82
2022-11-24T16:12:08.766Z,12.02
2022-11-24T16:15:14.931Z,18.02
2022-11-24T16:18:25.781Z,15.85
2022-11-24T16:21:38.729Z,14.83
2022-11-24T16:24:49.783Z,11.38
2022-11-24T16:27:58.859Z,11.82
2022-11-24T16:31:16.506Z,11.23
2022-11-24T16:34:36.984Z,11.80
2022-11-24T16:37:51.059Z,11.27
2022-11-24T16:40:58.589Z,11.93
2022-11-24T16:44:06.997Z,10.75
2022-11-24T16:47:14.710Z,15.57
2022-11-24T16:50:18.877Z,21.60
2022-11-24T16:53:28.758Z,22.93
2022-11-24T16:56:47.308Z,24.87
2022-11-24T17:00:10.786Z,27.40
2022-11-24T17:03:17.578Z,36.25
2022-11-24T17:06:27.985Z,25.77
2022-11-24T17:09:40.612Z,21.20
2022-11-24T17:12:51.776Z,18.80
2022-11-24T17:15:55.695Z,19.85
2022-11-24T17:19:13.057Z,18.30
2022-11-24T17:22:18.213Z,16.52
2022-11-24T17:25:25.071Z,13.77
2022-11-24T17:28:30.729Z,15.57
2022-11-24T17:31:50.140Z,15.85
2022-11-24T17:34:53.677Z,14.55
2022-11-24T17:37:58.995Z,13.65
2022-11-24T17:41:17.698Z,13.10
2022-11-24T17:44:29.050Z,15.27
2022-11-24T17:47:39.663Z,12.85
2022-11-24T17:50:44.909Z,12.98
2022-11-24T17:53:58.752Z,13.95
2022-11-24T17:57:06.936Z,13.30
2022-11-24T18:00:15.762Z,13.13
2022-11-24T18:03:26.733Z,13.45
2022-11-24T18:06:35.377Z,12.75
2022-11-24T18:09:47.058Z,12.55
2022-11-24T18:13:00.702Z,12.63
2022-11-24T18:16:10.955Z,11.35
2022-11-24T18:19:29.753Z,11.70
2022-11-24T18:23:04.720Z,12.32
2022-11-24T18:26:12.031Z,11.05
2022-11-24T18:29:23.261Z,10.77
2022-11-24T18:32:36.726Z,11.35
2022-11-24T18:35:43.711Z,12.02
2022-11-24T18:38:50.214Z,11.77
2022-11-24T18:42:00.641Z,13.73
2022-11-24T18:45:08.545Z,12.23
2022-11-24T18:48:22.796Z,13.10
2022-11-24T18:51:38.678Z,13.43
2022-11-24T18:54:45.946Z,12.50
2022-11-24T18:58:09.751Z,13.18
2022-11-24T19:01:29.724Z,13.20
2022-11-24T19:04:47.778Z,13.13
2022-11-24T19:08:00.713Z,15.25
2022-11-24T19:11:08.098Z,14.45
2022-11-24T19:14:20.864Z,13.70
2022-11-24T19:17:31.576Z,12.43
2022-11-24T19:20:41.333Z,12.23
2022-11-24T19:23:45.073Z,12.95
2022-11-24T19:27:00.604Z,12.73
2022-11-24T19:30:06.832Z,12.85
2022-11-24T19:33:15.522Z,13.37
2022-11-24T19:36:22.924Z,13.15
2022-11-24T19:39:27.086Z,14.57
2022-11-24T19:42:49.068Z,15.13
2022-11-24T19:45:54.766Z,15.73
2022-11-24T19:49:09.678Z,15.73
2022-11-24T19:52:24.711Z,15.55
2022-11-24T19:55:33.842Z,15.95
2022-11-24T19:58:41.030Z,14.87
2022-11-24T20:01:55.002Z,15.23
2022-11-24T20:05:09.606Z,16.37
2022-11-24T20:08:19.196Z,19.67
2022-11-24T20:11:24.717Z,18.05
2022-11-24T20:14:29.012Z,15.10
2022-11-24T20:17:33.712Z,15.40
2022-11-24T20:20:38.936Z,16.03
2022-11-24T20:23:43.935Z,16.17
2022-11-24T20:26:52.707Z,14.93
2022-11-24T20:30:00.797Z,14.07
2022-11-24T20:33:09.817Z,12.88
2022-11-24T20:36:30.645Z,14.60
2022-11-24T20:39:40.905Z,13.93
2022-11-24T20:42:50.761Z,13.30
2022-11-24T20:46:02.747Z,13.35
2022-11-24T20:49:08.902Z,13.77
2022-11-24T20:52:14.925Z,14.60
2022-11-24T20:55:18.655Z,13.35
2022-11-24T20:58:24.864Z,14.00
2022-11-24T21:01:41.967Z,13.25
2022-11-24T21:04:52.316Z,14.48
2022-11-24T21:08:02.870Z,14.30
2022-11-24T21:11:13.596Z,13.75
2022-11-24T21:14:17.668Z,13.82
2022-11-24T21:17:24.824Z,13.40
2022-11-24T21:20:31.846Z,12.27
2022-11-24T21:23:35.260Z,12.93
2022-11-24T21:26:39.808Z,13.05
2022-11-24T21:29:42.896Z,13.40
2022-11-24T21:32:48.221Z,13.27
2022-11-24T21:35:53.870Z,13.95
2022-11-24T21:39:04.751Z,12.53
2022-11-24T21:42:09.132Z,12.13
2022-11-24T21:45:13.659Z,12.93
2022-11-24T21:48:23.148Z,13.18
2022-11-24T21:51:26.698Z,13.05
2022-11-24T21:54:40.045Z,12.90
2022-11-24T21:57:43.914Z,13.25
2022-11-24T22:00:51.002Z,12.93
2022-11-24T22:03:58.732Z,13.05
2022-11-24T22:07:02.474Z,13.80
2022-11-24T22:10:06.949Z,13.23
2022-11-24T22:13:11.859Z,12.93
2022-11-24T22:16:17.637Z,14.45
2022-11-24T22:19:20.791Z,13.77
2022-11-24T22:22:24.236Z,12.73
2022-11-24T22:25:29.603Z,14.03
2022-11-24T22:28:36.019Z,12.75
2022-11-24T22:31:42.189Z,13.93
2022-11-24T22:34:45.299Z,13.80
2022-11-24T22:37:49.273Z,13.43
2022-11-24T22:40:53.309Z,12.43
2022-11-24T22:43:56.999Z,12.18
2022-11-24T22:47:01.159Z,12.98
2022-11-24T22:50:04.584Z,11.60
2022-11-24T22:53:07.585Z,12.88
2022-11-24T22:56:11.939Z,11.87
2022-11-24T22:59:15.998Z,11.93
2022-11-24T23:02:18.921Z,11.40
2022-11-24T23:05:29.268Z,11.82
2022-11-24T23:08:34.243Z,13.48
2022-11-24T23:11:39.807Z,12.13
2022-11-24T23:14:42.934Z,12.40
2022-11-24T23:17:46.389Z,13.18
2022-11-24T23:20:50.073Z,13.18
2022-11-24T23:24:02.755Z,14.00
2022-11-24T23:27:06.112Z,13.13
2022-11-24T23:30:10.018Z,13.23
2022-11-24T23:33:12.719Z,12.75
2022-11-24T23:36:19.786Z,13.62
2022-11-24T23:39:22.220Z,13.80
2022-11-24T23:42:24.972Z,13.33
2022-11-24T23:45:27.975Z,14.07
2022-11-24T23:48:32.958Z,13.65
2022-11-24T23:51:35.975Z,13.77
2022-11-24T23:54:40.916Z,14.30
2022-11-24T23:57:43.793Z,13.03
